createdAt,value
2023-05-23T00:00:38.254Z,97873.38
2023-05-23T00:03:08.980Z,97880.63
2023-05-23T00:05:39.859Z,97877.81
2023-05-23T00:08:10.810Z,97873.69
2023-05-23T00:10:43.997Z,97878.91
2023-05-23T00:13:15.344Z,97882.72
2023-05-23T00:15:46.887Z,97879.28
2023-05-23T00:18:17.866Z,97879.28
2023-05-23T00:20:48.936Z,97881.47
2023-05-23T00:23:22.739Z,97889.75
2023-05-23T00:25:56.180Z,97884.63
2023-05-23T00:28:26.838Z,97880.72
2023-05-23T00:30:57.451Z,97877.47
2023-05-23T00:33:29.977Z,97886.34
2023-05-23T00:36:00.847Z,97883.72
2023-05-23T00:38:31.590Z,97888.97
2023-05-23T00:41:05.867Z,97883.91
2023-05-23T00:43:37.031Z,97887.34
2023-05-23T00:46:08.763Z,97884.84
2023-05-23T00:48:40.001Z,97890.38
2023-05-23T00:51:10.990Z,97891.06
2023-05-23T00:53:41.871Z,97904.53
2023-05-23T00:56:15.471Z,97899.09
2023-05-23T00:58:46.107Z,97897.28
2023-05-23T01:01:18.052Z,97901.69
2023-05-23T01:03:48.904Z,97897.47
2023-05-23T01:06:20.482Z,97900.50
2023-05-23T01:08:51.117Z,97903.91
2023-05-23T01:11:30.872Z,97904.91
2023-05-23T01:14:06.305Z,97901.13
2023-05-23T01:16:48.908Z,97903.25
2023-05-23T01:19:52.112Z,97904.72
2023-05-23T01:22:36.200Z,97896.59
2023-05-23T01:25:14.842Z,97903.53
2023-05-23T01:27:54.255Z,97898.50
2023-05-23T01:30:26.356Z,97903.88
2023-05-23T01:32:59.561Z,97899.72
2023-05-23T01:35:31.256Z,97898.16
2023-05-23T01:38:01.976Z,97897.84
2023-05-23T01:40:32.943Z,97900.63
2023-05-23T01:43:06.475Z,97906.97
2023-05-23T01:45:38.114Z,97904.22
2023-05-23T01:48:10.108Z,97912.72
2023-05-23T01:50:42.147Z,97905.31
2023-05-23T01:53:14.987Z,97907.34
2023-05-23T01:55:46.598Z,97908.66
2023-05-23T01:58:20.614Z,97906.09
2023-05-23T02:00:51.330Z,97910.25
2023-05-23T02:03:22.308Z,97909.22
2023-05-23T02:05:53.674Z,97911.78
2023-05-23T02:08:24.287Z,97909.34
2023-05-23T02:10:54.947Z,97916.63
2023-05-23T02:13:28.316Z,97911.00
2023-05-23T02:15:58.911Z,97908.66
2023-05-23T02:18:30.074Z,97904.75
2023-05-23T02:21:00.680Z,97907.00
2023-05-23T02:23:31.414Z,97907.78
2023-05-23T02:26:02.122Z,97906.56
2023-05-23T02:28:35.279Z,97906.47
2023-05-23T02:31:06.306Z,97913.28
2023-05-23T02:33:37.006Z,97906.22
2023-05-23T02:36:08.319Z,97910.38
2023-05-23T02:38:39.013Z,97912.13
2023-05-23T02:41:09.637Z,97911.47
2023-05-23T02:43:44.248Z,97913.59
2023-05-23T02:46:16.461Z,97912.47
2023-05-23T02:48:47.457Z,97913.69
2023-05-23T02:51:18.021Z,97915.72
2023-05-23T02:53:48.605Z,97911.81
2023-05-23T02:56:20.430Z,97923.31
2023-05-23T02:58:53.608Z,97921.41
2023-05-23T03:01:24.454Z,97927.78
2023-05-23T03:03:55.096Z,97929.69
2023-05-23T03:06:27.741Z,97932.34
2023-05-23T03:08:58.348Z,97931.47
2023-05-23T03:11:30.003Z,97935.81
2023-05-23T03:14:03.173Z,97933.44
2023-05-23T03:16:33.796Z,97931.66
2023-05-23T03:19:04.882Z,97926.38
2023-05-23T03:21:36.373Z,97928.94
2023-05-23T03:24:07.827Z,97925.72
2023-05-23T03:26:38.351Z,97930.97
2023-05-23T03:29:11.522Z,97938.13
2023-05-23T03:31:42.135Z,97939.03
2023-05-23T03:34:13.189Z,97940.59
2023-05-23T03:36:43.874Z,97942.16
2023-05-23T03:39:14.523Z,97941.59
2023-05-23T03:41:45.088Z,97948.69
2023-05-23T03:44:18.400Z,97944.44
2023-05-23T03:46:49.093Z,97951.94
2023-05-23T03:49:21.159Z,97943.28
2023-05-23T03:51:51.758Z,97945.44
2023-05-23T03:54:22.368Z,97943.06
2023-05-23T03:56:53.022Z,97938.63
2023-05-23T03:59:26.236Z,97944.41
2023-05-23T04:01:58.992Z,97950.03
2023-05-23T04:04:29.724Z,97946.78
2023-05-23T04:07:01.801Z,97942.19
2023-05-23T04:09:32.818Z,97938.72
2023-05-23T04:12:03.978Z,97947.75
2023-05-23T04:14:37.867Z,97947.06
2023-05-23T04:17:09.314Z,97942.59
2023-05-23T04:19:40.650Z,97948.84
2023-05-23T04:22:11.301Z,97945.88
2023-05-23T04:24:41.911Z,97954.31
2023-05-23T04:27:13.891Z,97956.25
2023-05-23T04:29:48.369Z,97959.38
2023-05-23T04:32:23.243Z,97953.75
2023-05-23T04:34:54.113Z,97953.53
2023-05-23T04:37:26.529Z,97950.56
2023-05-23T04:39:59.470Z,97957.91
2023-05-23T04:42:46.391Z,97959.94
2023-05-23T04:45:41.835Z,97962.41
2023-05-23T04:48:30.167Z,97973.66
2023-05-23T04:51:02.418Z,97961.63
2023-05-23T04:53:33.879Z,97977.72
2023-05-23T04:56:04.812Z,97970.31
2023-05-23T04:58:35.811Z,97973.81
2023-05-23T05:01:11.958Z,97976.78
2023-05-23T05:03:42.712Z,97976.00
2023-05-23T05:06:13.360Z,97980.91
2023-05-23T05:08:43.983Z,97980.84
2023-05-23T05:11:15.323Z,97986.31
2023-05-23T05:13:45.985Z,97992.56
2023-05-23T05:16:20.130Z,97987.25
2023-05-23T05:18:51.685Z,97982.06
2023-05-23T05:21:23.577Z,97979.56
2023-05-23T05:23:54.655Z,97990.13
2023-05-23T05:26:25.572Z,97993.56
2023-05-23T05:28:57.122Z,97992.22
2023-05-23T05:31:30.524Z,97992.84
2023-05-23T05:34:01.292Z,98002.19
2023-05-23T05:36:32.626Z,97993.56
2023-05-23T05:39:03.436Z,97999.19
2023-05-23T05:41:33.988Z,98005.69
2023-05-23T05:44:04.525Z,98002.19
2023-05-23T05:46:37.905Z,98004.34
2023-05-23T05:49:10.196Z,98005.06
2023-05-23T05:51:41.102Z,98009.94
2023-05-23T05:54:11.975Z,98002.91
2023-05-23T05:56:42.640Z,97993.41
2023-05-23T05:59:14.370Z,97998.47
2023-05-23T06:01:47.914Z,98002.56
2023-05-23T06:04:18.793Z,97997.72
2023-05-23T06:06:49.719Z,97996.78
2023-05-23T06:09:20.258Z,97998.97
2023-05-23T06:11:51.157Z,97996.03
2023-05-23T06:14:22.458Z,98004.03
2023-05-23T06:16:56.906Z,98007.94
2023-05-23T06:19:27.598Z,98011.31
2023-05-23T06:21:58.889Z,98012.94
2023-05-23T06:24:29.575Z,98005.69
2023-05-23T06:27:00.123Z,98008.72
2023-05-23T06:29:31.416Z,98008.28
2023-05-23T06:32:04.691Z,98008.63
2023-05-23T06:34:35.554Z,98014.25
2023-05-23T06:37:06.112Z,98018.25
2023-05-23T06:39:36.659Z,98023.72
2023-05-23T06:42:07.618Z,98027.22
2023-05-23T06:44:53.560Z,98025.34
2023-05-23T06:47:26.940Z,98026.75
2023-05-23T06:49:57.546Z,98028.69
2023-05-23T06:52:28.856Z,98037.16
2023-05-23T06:55:00.449Z,98034.56
2023-05-23T06:57:31.192Z,98034.28
2023-05-23T07:00:01.809Z,98039.84
2023-05-23T07:02:35.135Z,98038.97
2023-05-23T07:05:09.609Z,98044.81
2023-05-23T07:07:51.013Z,98050.56
2023-05-23T07:10:21.923Z,98046.00
2023-05-23T07:12:54.160Z,98053.09
2023-05-23T07:15:26.180Z,98054.69
2023-05-23T07:18:11.918Z,98055.88
2023-05-23T07:20:42.690Z,98056.44
2023-05-23T07:23:20.164Z,98058.69
2023-05-23T07:26:01.785Z,98062.56
2023-05-23T07:28:40.609Z,98062.84
2023-05-23T07:31:12.228Z,98058.13
2023-05-23T07:33:45.493Z,98071.50
2023-05-23T07:36:22.575Z,98071.94
2023-05-23T07:38:54.436Z,98075.56
2023-05-23T07:41:25.226Z,98081.56
2023-05-23T07:43:56.098Z,98074.59
2023-05-23T07:46:26.763Z,98087.97
2023-05-23T07:48:59.911Z,98079.81
2023-05-23T07:51:31.067Z,98080.78
2023-05-23T07:54:01.651Z,98086.13
2023-05-23T07:56:32.601Z,98079.84
2023-05-23T07:59:03.129Z,98083.91
2023-05-23T08:01:33.980Z,98088.66
2023-05-23T08:04:12.703Z,98090.47
2023-05-23T08:07:04.190Z,98091.81
2023-05-23T08:09:49.807Z,98092.19
2023-05-23T08:12:23.098Z,98094.22
2023-05-23T08:15:02.251Z,98095.16
2023-05-23T08:17:36.893Z,98106.69
2023-05-23T08:20:12.372Z,98103.00
2023-05-23T08:22:43.190Z,98099.59
2023-05-23T08:25:14.285Z,98106.97
2023-05-23T08:27:44.840Z,98112.59
2023-05-23T08:30:33.905Z,98118.50
2023-05-23T08:33:05.082Z,98109.19
2023-05-23T08:35:39.197Z,98115.72
2023-05-23T08:38:13.828Z,98125.28
2023-05-23T08:40:55.477Z,98120.88
2023-05-23T08:43:27.669Z,98112.75
2023-05-23T08:45:58.741Z,98119.59
2023-05-23T08:48:32.573Z,98128.13
2023-05-23T08:51:07.088Z,98125.94
2023-05-23T08:53:41.352Z,98133.56
2023-05-23T08:56:12.717Z,98139.75
2023-05-23T08:58:48.753Z,98134.69
2023-05-23T09:01:23.254Z,98140.06
2023-05-23T09:04:00.494Z,98145.25
2023-05-23T09:07:10.778Z,98148.53
2023-05-23T09:09:41.893Z,98154.94
2023-05-23T09:12:15.556Z,98138.19
2023-05-23T09:14:49.339Z,98148.47
2023-05-23T09:17:22.700Z,98148.31
2023-05-23T09:19:55.554Z,98157.13
2023-05-23T09:22:52.467Z,98148.88
2023-05-23T09:25:23.322Z,98153.56
2023-05-23T09:28:00.236Z,98153.50
2023-05-23T09:30:31.786Z,98152.72
2023-05-23T09:33:05.896Z,98159.38
2023-05-23T09:35:37.726Z,98155.69
2023-05-23T09:38:12.892Z,98157.53
2023-05-23T09:40:49.344Z,98155.16
2023-05-23T09:43:21.396Z,98164.09
2023-05-23T09:45:57.706Z,98174.84
2023-05-23T09:48:33.914Z,98169.44
2023-05-23T09:51:08.744Z,98177.69
2023-05-23T09:53:42.298Z,98168.41
2023-05-23T09:56:15.588Z,98175.72
2023-05-23T09:58:48.072Z,98173.88
2023-05-23T10:01:19.830Z,98167.03
2023-05-23T10:03:57.250Z,98174.75
2023-05-23T10:06:34.822Z,98173.59
2023-05-23T10:09:15.534Z,98175.03
2023-05-23T10:12:22.208Z,98174.25
2023-05-23T10:15:00.144Z,98174.03
2023-05-23T10:17:39.495Z,98172.19
2023-05-23T10:20:13.987Z,98169.41
2023-05-23T10:22:45.993Z,98176.47
2023-05-23T10:25:19.627Z,98173.53
2023-05-23T10:27:54.273Z,98170.50
2023-05-23T10:30:25.255Z,98174.13
2023-05-23T10:32:57.086Z,98167.66
2023-05-23T10:35:36.200Z,98174.16
2023-05-23T10:38:15.937Z,98173.34
2023-05-23T10:40:58.118Z,98169.97
2023-05-23T10:43:34.041Z,98175.44
2023-05-23T10:46:04.639Z,98171.53
2023-05-23T10:48:43.786Z,98175.22
2023-05-23T10:51:15.616Z,98170.59
2023-05-23T10:53:47.939Z,98172.94
2023-05-23T10:56:26.758Z,98175.44
2023-05-23T10:59:00.310Z,98162.25
2023-05-23T11:01:31.309Z,98174.31
2023-05-23T11:04:08.159Z,98176.88
2023-05-23T11:06:43.017Z,98175.94
2023-05-23T11:09:16.888Z,98174.44
2023-05-23T11:12:05.036Z,98174.22
2023-05-23T11:14:38.568Z,98179.00
2023-05-23T11:17:19.833Z,98177.75
2023-05-23T11:20:13.484Z,98177.50
2023-05-23T11:22:56.041Z,98177.75
2023-05-23T11:25:44.763Z,98179.56
2023-05-23T11:28:18.059Z,98184.03
2023-05-23T11:30:51.261Z,98184.44
2023-05-23T11:33:22.381Z,98182.66
2023-05-23T11:35:54.167Z,98178.97
2023-05-23T11:38:25.040Z,98186.31
2023-05-23T11:40:55.624Z,98173.19
2023-05-23T11:43:28.921Z,98175.72
2023-05-23T11:45:59.484Z,98178.94
2023-05-23T11:48:32.604Z,98173.78
2023-05-23T11:51:03.232Z,98171.84
2023-05-23T11:53:34.161Z,98185.06
2023-05-23T11:56:06.316Z,98176.75
2023-05-23T11:58:42.841Z,98162.44
2023-05-23T12:01:14.773Z,98177.81
2023-05-23T12:03:53.490Z,98166.75
2023-05-23T12:06:25.182Z,98161.94
2023-05-23T12:08:56.315Z,98176.34
2023-05-23T12:11:26.979Z,98177.47
2023-05-23T12:14:01.261Z,98174.13
2023-05-23T12:16:32.933Z,98178.38
2023-05-23T12:19:05.035Z,98164.91
2023-05-23T12:21:45.935Z,98165.78
2023-05-23T12:24:20.467Z,98166.03
2023-05-23T12:26:52.654Z,98169.34
2023-05-23T12:29:34.740Z,98161.28
2023-05-23T12:32:07.318Z,98160.88
2023-05-23T12:34:37.864Z,98160.81
2023-05-23T12:39:42.738Z,98150.41
2023-05-23T12:42:14.021Z,98156.75
2023-05-23T12:44:48.859Z,98149.53
2023-05-23T12:47:19.698Z,98137.34
2023-05-23T12:49:50.305Z,98145.38
2023-05-23T12:52:20.808Z,98144.53
2023-05-23T12:54:51.538Z,98132.25
2023-05-23T12:57:22.884Z,98129.88
2023-05-23T12:59:55.986Z,98131.00
2023-05-23T13:02:26.753Z,98139.63
2023-05-23T13:04:57.399Z,98136.19
2023-05-23T13:07:27.955Z,98130.72
2023-05-23T13:09:58.577Z,98124.66
2023-05-23T13:12:29.866Z,98130.50
2023-05-23T13:15:03.167Z,98127.38
2023-05-23T13:17:33.732Z,98129.19
2023-05-23T13:20:05.378Z,98126.63
2023-05-23T13:22:36.048Z,98130.72
2023-05-23T13:25:07.545Z,98132.09
2023-05-23T13:27:38.206Z,98131.75
2023-05-23T13:30:12.790Z,98126.34
2023-05-23T13:32:43.365Z,98126.06
2023-05-23T13:35:14.061Z,98135.38
2023-05-23T13:37:44.645Z,98128.06
2023-05-23T13:40:20.679Z,98127.28
2023-05-23T13:42:53.476Z,98121.91
2023-05-23T13:45:26.817Z,98137.41
2023-05-23T13:47:57.406Z,98136.31
2023-05-23T13:50:28.371Z,98135.44
2023-05-23T13:52:59.022Z,98132.81
2023-05-23T13:55:29.719Z,98146.88
2023-05-23T13:58:00.303Z,98141.19
2023-05-23T14:00:33.489Z,98134.84
2023-05-23T14:03:04.157Z,98142.16
2023-05-23T14:05:34.786Z,98137.47
2023-05-23T14:08:05.349Z,98128.91
2023-05-23T14:10:36.166Z,98129.69
2023-05-23T14:13:07.049Z,98135.22
2023-05-23T14:15:42.690Z,98132.88
2023-05-23T14:18:13.443Z,98136.50
2023-05-23T14:20:43.994Z,98140.69
2023-05-23T14:23:16.670Z,98131.00
2023-05-23T14:25:47.173Z,98136.78
2023-05-23T14:28:17.844Z,98141.66
2023-05-23T14:30:51.219Z,98132.00
2023-05-23T14:33:21.828Z,98134.84
2023-05-23T14:35:53.096Z,98131.66
2023-05-23T14:38:23.632Z,98129.22
2023-05-23T14:40:54.801Z,98135.78
2023-05-23T14:43:25.318Z,98132.84
2023-05-23T14:45:58.589Z,98129.44
2023-05-23T14:48:29.145Z,98139.34
2023-05-23T14:51:01.801Z,98141.31
2023-05-23T14:56:03.593Z,98134.72
2023-05-23T14:58:34.183Z,98135.44
2023-05-23T15:01:07.635Z,98131.84
2023-05-23T15:03:38.532Z,98131.06
2023-05-23T15:06:09.572Z,98140.66
2023-05-23T15:08:40.431Z,98137.81
2023-05-23T15:11:11.205Z,98134.13
2023-05-23T15:13:41.742Z,98127.28
2023-05-23T15:16:18.216Z,98127.31
2023-05-23T15:18:51.466Z,98124.50
2023-05-23T15:21:22.105Z,98128.44
2023-05-23T15:23:52.662Z,98123.00
2023-05-23T15:26:28.389Z,98126.66
2023-05-23T15:28:59.299Z,98127.13
2023-05-23T15:31:33.492Z,98115.41
2023-05-23T15:34:04.616Z,98126.09
2023-05-23T15:36:35.241Z,98120.47
2023-05-23T15:39:06.355Z,98120.56
2023-05-23T15:41:36.931Z,98111.50
2023-05-23T15:44:07.803Z,98114.41
2023-05-23T15:46:40.943Z,98121.09
2023-05-23T15:49:24.508Z,98115.19
2023-05-23T15:51:56.860Z,98112.63
2023-05-23T15:54:27.393Z,98111.59
2023-05-23T15:56:57.972Z,98121.22
2023-05-23T15:59:28.577Z,98111.56
2023-05-23T16:02:05.463Z,98111.25
2023-05-23T16:04:36.231Z,98109.22
2023-05-23T16:07:07.093Z,98104.91
2023-05-23T16:09:37.623Z,98101.19
2023-05-23T16:12:08.920Z,98110.41
2023-05-23T16:14:39.502Z,98096.84
2023-05-23T16:17:12.713Z,98112.44
2023-05-23T16:19:43.432Z,98103.31
2023-05-23T16:22:15.883Z,98097.97
2023-05-23T16:24:46.514Z,98098.88
2023-05-23T16:27:17.204Z,98100.91
2023-05-23T16:29:54.271Z,98100.16
2023-05-23T16:32:27.427Z,98095.31
2023-05-23T16:34:58.285Z,98097.63
2023-05-23T16:37:28.824Z,98099.56
2023-05-23T16:39:59.366Z,98092.59
2023-05-23T16:42:30.066Z,98100.06
2023-05-23T16:45:00.714Z,98103.69
2023-05-23T16:47:33.920Z,98105.78
2023-05-23T16:50:05.129Z,98098.41
2023-05-23T16:52:35.710Z,98097.44
2023-05-23T16:55:07.188Z,98100.72
2023-05-23T16:57:37.705Z,98101.63
2023-05-23T17:00:09.334Z,98109.22
2023-05-23T17:02:42.669Z,98105.50
2023-05-23T17:05:13.357Z,98103.38
2023-05-23T17:07:43.938Z,98110.00
2023-05-23T17:10:14.972Z,98101.72
2023-05-23T17:12:45.481Z,98109.94
2023-05-23T17:15:15.999Z,98110.84
2023-05-23T17:17:49.775Z,98114.75
2023-05-23T17:20:24.144Z,98116.75
2023-05-23T17:22:54.945Z,98116.25
2023-05-23T17:25:25.678Z,98112.63
2023-05-23T17:27:56.928Z,98121.69
2023-05-23T17:30:28.486Z,98112.13
2023-05-23T17:33:01.657Z,98118.34
2023-05-23T17:35:32.577Z,98116.75
2023-05-23T17:38:03.146Z,98122.28
2023-05-23T17:40:33.850Z,98114.00
2023-05-23T17:43:04.393Z,98122.16
2023-05-23T17:45:34.961Z,98129.22
2023-05-23T17:48:08.214Z,98128.47
2023-05-23T17:50:38.752Z,98123.19
2023-05-23T17:53:09.656Z,98134.13
2023-05-23T17:55:40.207Z,98130.03
2023-05-23T17:58:10.851Z,98138.97
2023-05-23T18:00:41.683Z,98130.84
2023-05-23T18:03:14.920Z,98136.00
2023-05-23T18:05:45.671Z,98141.00
2023-05-23T18:08:16.594Z,98139.53
2023-05-23T18:10:47.913Z,98141.81
2023-05-23T18:13:19.183Z,98152.53
2023-05-23T18:15:49.808Z,98153.91
2023-05-23T18:18:23.024Z,98154.03
2023-05-23T18:20:53.698Z,98151.41
2023-05-23T18:23:25.005Z,98151.22
2023-05-23T18:25:55.503Z,98161.22
2023-05-23T18:28:26.120Z,98156.00
2023-05-23T18:30:56.683Z,98155.03
2023-05-23T18:33:30.344Z,98162.25
2023-05-23T18:36:01.421Z,98161.75
2023-05-23T18:38:32.029Z,98164.69
2023-05-23T18:41:02.661Z,98169.28
2023-05-23T18:43:33.218Z,98165.94
2023-05-23T18:46:03.859Z,98168.41
2023-05-23T18:48:37.076Z,98169.53
2023-05-23T18:51:08.628Z,98168.53
2023-05-23T18:53:40.813Z,98173.13
2023-05-23T18:56:12.879Z,98187.03
2023-05-23T18:58:45.333Z,98188.34
2023-05-23T19:01:17.272Z,98189.25
2023-05-23T19:03:50.475Z,98190.97
2023-05-23T19:06:21.264Z,98189.84
2023-05-23T19:08:51.822Z,98191.50
2023-05-23T19:11:22.750Z,98195.53
2023-05-23T19:13:53.309Z,98200.00
2023-05-23T19:16:24.214Z,98207.06
2023-05-23T19:18:57.539Z,98197.47
2023-05-23T19:21:28.492Z,98205.63
2023-05-23T19:23:59.323Z,98216.78
2023-05-23T19:26:30.123Z,98218.81
2023-05-23T19:29:00.798Z,98218.13
2023-05-23T19:31:31.860Z,98227.06
2023-05-23T19:34:05.087Z,98235.22
2023-05-23T19:36:36.689Z,98237.56
2023-05-23T19:39:07.485Z,98246.72
2023-05-23T19:41:38.160Z,98242.94
2023-05-23T19:44:08.711Z,98252.66
2023-05-23T19:46:39.280Z,98253.44
2023-05-23T19:49:13.810Z,98261.66
2023-05-23T19:51:44.392Z,98261.09
2023-05-23T19:54:15.802Z,98258.06
2023-05-23T19:56:46.378Z,98266.22
2023-05-23T19:59:17.230Z,98268.06
2023-05-23T20:01:47.834Z,98273.19
2023-05-23T20:04:24.193Z,98265.31
2023-05-23T20:06:56.161Z,98268.34
2023-05-23T20:09:26.715Z,98274.44
2023-05-23T20:11:57.282Z,98272.84
2023-05-23T20:14:29.353Z,98270.66
2023-05-23T20:17:00.075Z,98276.81
2023-05-23T20:19:33.373Z,98276.28
2023-05-23T20:22:04.199Z,98274.94
2023-05-23T20:24:34.771Z,98289.28
2023-05-23T20:27:05.314Z,98283.63
2023-05-23T20:29:36.056Z,98285.63
2023-05-23T20:32:06.946Z,98286.47
2023-05-23T20:34:40.154Z,98287.72
2023-05-23T20:37:13.856Z,98283.19
2023-05-23T20:39:44.701Z,98284.22
2023-05-23T20:42:15.356Z,98295.94
2023-05-23T20:44:47.080Z,98294.97
2023-05-23T20:47:18.457Z,98298.94
2023-05-23T20:49:51.853Z,98305.09
2023-05-23T20:52:23.081Z,98307.66
2023-05-23T20:54:54.661Z,98316.34
2023-05-23T20:57:25.294Z,98315.59
2023-05-23T20:59:55.855Z,98324.31
2023-05-23T21:02:26.943Z,98324.69
2023-05-23T21:05:00.325Z,98328.44
2023-05-23T21:07:30.921Z,98331.63
2023-05-23T21:10:01.493Z,98339.09
2023-05-23T21:12:32.144Z,98335.34
2023-05-23T21:15:03.295Z,98335.19
2023-05-23T21:17:33.953Z,98333.31
2023-05-23T21:20:07.705Z,98332.59
2023-05-23T21:22:38.289Z,98343.47
2023-05-23T21:25:09.524Z,98346.22
2023-05-23T21:27:40.225Z,98337.97
2023-05-23T21:30:12.192Z,98344.50
2023-05-23T21:32:43.669Z,98355.00
2023-05-23T21:35:17.009Z,98350.09
2023-05-23T21:37:47.546Z,98349.88
2023-05-23T21:40:18.201Z,98342.03
2023-05-23T21:42:48.770Z,98347.59
2023-05-23T21:45:19.374Z,98342.47
2023-05-23T21:47:49.996Z,98333.81
2023-05-23T21:50:23.454Z,98336.97
2023-05-23T21:52:54.322Z,98331.84
2023-05-23T21:55:24.956Z,98341.34
2023-05-23T21:57:55.780Z,98346.25
2023-05-23T22:00:27.542Z,98338.41
2023-05-23T22:02:58.212Z,98344.50
2023-05-23T22:05:31.829Z,98346.50
2023-05-23T22:08:02.352Z,98355.75
2023-05-23T22:10:35.014Z,98359.50
2023-05-23T22:13:06.098Z,98363.66
2023-05-23T22:15:37.024Z,98364.44
2023-05-23T22:18:08.035Z,98364.59
2023-05-23T22:20:41.381Z,98356.16
2023-05-23T22:23:16.975Z,98364.63
2023-05-23T22:25:48.273Z,98358.13
2023-05-23T22:28:18.921Z,98363.84
2023-05-23T22:30:49.612Z,98356.34
2023-05-23T22:33:20.398Z,98365.81
2023-05-23T22:35:53.725Z,98365.22
2023-05-23T22:38:24.376Z,98366.00
2023-05-23T22:40:54.965Z,98369.75
2023-05-23T22:43:25.784Z,98368.56
2023-05-23T22:45:56.363Z,98363.63
2023-05-23T22:48:28.431Z,98370.94
2023-05-23T22:51:02.992Z,98372.13
2023-05-23T22:53:33.890Z,98371.69
2023-05-23T22:56:04.568Z,98367.75
2023-05-23T22:58:35.148Z,98368.56
2023-05-23T23:01:05.852Z,98367.38
2023-05-23T23:03:36.568Z,98366.78
2023-05-23T23:06:10.191Z,98367.59
2023-05-23T23:08:40.967Z,98360.69
2023-05-23T23:11:11.562Z,98354.00
2023-05-23T23:13:42.193Z,98354.38
2023-05-23T23:16:13.369Z,98361.50
2023-05-23T23:18:44.098Z,98363.03
2023-05-23T23:21:17.400Z,98362.28
2023-05-23T23:23:48.083Z,98362.28
2023-05-23T23:26:18.745Z,98355.00
2023-05-23T23:28:49.441Z,98352.44
2023-05-23T23:31:20.133Z,98352.03
2023-05-23T23:33:50.818Z,98354.59
2023-05-23T23:36:24.358Z,98348.91
2023-05-23T23:38:54.952Z,98354.41
2023-05-23T23:41:27.040Z,98357.56
2023-05-23T23:43:57.609Z,98352.25
2023-05-23T23:46:28.273Z,98354.00
2023-05-23T23:48:58.869Z,98348.91
2023-05-23T23:51:32.821Z,98349.47
2023-05-23T23:54:03.640Z,98355.97
2023-05-23T23:56:34.198Z,98353.63
2023-05-23T23:59:04.894Z,98352.81
